Terminal Aerodrome Forecast
Issued by NWS Charleston, WV

Current Version | Previous Version | Text Only | Print | Product List | Glossary Off
Versions: 1 2 3 4 5 6 7 8 9 10 11 12 13 14 15 16 17 18

000
FTUS41 KRLX 231900 AAA
TAFPKB
TAF AMD
KPKB 231938Z 2320/2418 29008KT P6SM SCT080
     FM240200 36006KT P6SM VCTS OVC020CB
     FM240300 01006KT P6SM OVC020
     FM240800 01005KT P6SM BKN025
     FM241100 35006KT P6SM BKN035=

USA.gov is the U.S. government's official web portal to all federal, state and local government web resources and services.